Hlavní strana
METAR-TAF:

METAR-TAF

Letiště :

Letiště Longyearbyen

Longyearbyen, Norsko

zeměpisná šířka: 78-15N, zeměpisná délka: 015-28E, výška: 2 m

Aktuální stav počasí

Zpráva byla vytvořena před 24 minutami, v 08:50 UTC
Jihovýchodní vítr 20 kt
Teplota 0°C
Vlhkost vzduchu 69%
Tlak 1009 hPa
Viditelnost 10 km a více
Polojasno ve výšce 3000 ft
v blízkosti, , písek

METAR: ENSB 200850Z 13020KT 9999 VCBLSA SCT030 00/M05 Q1009 RMK WIND 1400FT 12024KT

Čas: 11:14 (09:14 UTC)

Předpověď počasí

Předpověď platná od 20 v 06 UTC do 21 v 06 UTC
Východojihovýchodní vítr 15 kt
Viditelnost 10 km a více
Skoro jasno ve výšce 1500 ft
Polojasno ve výšce 3000 ft
Dočasný
od 20 v 06 UTC do 21 v 06 UTC
Východojihovýchodní vítr 25 kt s nárazy do 35 kt

TAF: ENSB 2006/2106 12015KT 9999 FEW015 SCT030 TEMPO 2006/2106 12025G35KT

Stav a předpovědi počasí z více než 4 000 letišť (zprávy METAR a TAF).

Červené a žluté tečky na mapě představují dostupné meteorologické stanice.

Když kurzor umístíte na tečku, zobrazí se název stanice.

Pak kliknutím zobrazíte stav a předpověď počasí.

Chcete-li změnit mapu, kliknutím na zelené tlačítko se znaménkem +mapu přiblížíte, kliknutím na zelené tlačítko se znaménkem – mapu oddálíte a kliknutím na zelené šipky přejdete na sousední mapy.


METAR-TAF: